首页
METAR-TAF:

METAR-TAF

机场 :

贝鲁特, 黎巴嫩

纬度: 33-49N, 经度: 035-29E, 海拔: 29米

当前天气观测

该预报发布于1小时和3分钟前的23:00 UTC
风速4节,风向东转东南
温度 25°C
湿度 65%
气压 1012 hPa
能见度10公里或以上
散云层高于2400英尺

METAR: OLBA 192300Z 11004KT 9999 SCT024 25/18 Q1012 NOSIG

时间: 03:03 (00:03 UTC)

预报

该预报发布于2小时和3分钟前的22:00 UTC
预报有效从20日的 00点(UTC)到 21日的 06点(UTC)
风速8节,风向西转西北
能见度10公里或以上
散云层高于2500英尺
成为
从 20日的 03点(UTC)到 20日的 06点(UTC)
风速8节,风向西转西南
成为
从 20日的 06点(UTC)到 20日的 09点(UTC)
风速10节,风向西南
能見度: 8000
多云层高于2600英尺
成为
从 20日的 18点(UTC)到 20日的 21点(UTC)
风速8节,风向
能见度10公里或以上
散云层高于2600英尺

TAF: OLBA 192200Z 2000/2106 29008KT 9999 SCT025 BECMG 2003/2006 24008KT BECMG 2006/2009 22010KT 8000 BKN026 BECMG 2018/2021 18008KT 9999 SCT026

超过4000个机场的气象观测和天气预报(METAR&TAF报告)。

可查询的气象台以黄色和红色小点在地图上表示。

将鼠标移到小点上方,可查看气象台名称。

然后点击查看天气观测和预报。

如需切换地图:点击带黑十字的绿色按钮放大地图;点击带横线的绿色按钮缩小地图;或者点击绿色箭头查看邻近地区的地图。


METAR-TAF: